createdAt,value
2023-04-21T00:00:44.035Z,76.59
2023-04-21T00:01:44.032Z,75.76
2023-04-21T00:02:44.109Z,74.84
2023-04-21T00:03:44.252Z,73.71
2023-04-21T00:04:44.148Z,73.40
2023-04-21T00:05:44.029Z,74.22
2023-04-21T00:06:43.970Z,74.63
2023-04-21T00:07:43.960Z,74.02
2023-04-21T00:08:43.973Z,75.15
2023-04-21T00:09:43.939Z,75.35
2023-04-21T00:10:43.925Z,76.48
2023-04-21T00:11:43.914Z,77.00
2023-04-21T00:12:43.902Z,76.07
2023-04-21T00:13:43.895Z,76.28
2023-04-21T00:14:43.886Z,75.97
2023-04-21T00:15:43.885Z,76.07
2023-04-21T00:16:43.856Z,75.46
2023-04-21T00:17:43.874Z,76.07
2023-04-21T00:18:43.856Z,75.04
2023-04-21T00:19:43.827Z,76.18
2023-04-21T00:20:43.819Z,76.48
2023-04-21T00:21:43.800Z,76.28
2023-04-21T00:22:43.792Z,75.76
2023-04-21T00:23:43.778Z,76.28
2023-04-21T00:24:43.792Z,76.07
2023-04-21T00:25:43.763Z,77.72
2023-04-21T00:26:43.748Z,76.69
2023-04-21T00:27:43.742Z,77.20
2023-04-21T00:28:43.726Z,76.90
2023-04-21T00:29:43.716Z,76.18
2023-04-21T00:30:43.711Z,76.69
2023-04-21T00:31:43.707Z,76.90
2023-04-21T00:32:43.716Z,76.69
2023-04-21T00:33:43.673Z,76.59
2023-04-21T00:34:43.658Z,76.11
2023-04-21T00:35:43.642Z,74.36
2023-04-21T00:36:43.639Z,74.77
2023-04-21T00:37:43.651Z,74.63
2023-04-21T00:38:43.615Z,74.87
2023-04-21T00:39:43.598Z,74.74
2023-04-21T00:40:43.610Z,74.36
2023-04-21T00:41:43.581Z,73.54
2023-04-21T00:42:43.569Z,72.00
2023-04-21T00:43:43.553Z,73.50
2023-04-21T00:44:43.544Z,73.91
2023-04-21T00:45:43.534Z,75.56
2023-04-21T00:46:43.601Z,74.84
2023-04-21T00:47:43.541Z,75.97
2023-04-21T00:48:43.500Z,75.76
2023-04-21T00:49:43.496Z,76.79
2023-04-21T00:50:43.484Z,75.97
2023-04-21T00:51:43.465Z,76.07
2023-04-21T00:52:43.456Z,75.76
2023-04-21T00:53:43.448Z,75.87
2023-04-21T00:54:43.443Z,75.56
2023-04-21T00:55:43.421Z,74.87
2023-04-21T00:56:43.435Z,74.57
2023-04-21T00:57:43.398Z,73.64
2023-04-21T00:58:43.392Z,73.44
2023-04-21T00:59:43.374Z,71.79
2023-04-21T01:00:43.431Z,72.81
2023-04-21T01:01:43.401Z,72.92
2023-04-21T01:02:43.588Z,71.17
2023-04-21T01:03:43.517Z,72.92
2023-04-21T01:04:43.321Z,73.33
2023-04-21T01:05:43.325Z,74.05
2023-04-21T01:06:43.334Z,74.15
2023-04-21T01:07:43.288Z,73.54
2023-04-21T01:08:43.274Z,75.18
2023-04-21T01:09:43.269Z,74.98
2023-04-21T01:10:43.262Z,75.18
2023-04-21T01:11:43.244Z,74.67
2023-04-21T01:12:43.258Z,73.74
2023-04-21T01:13:43.221Z,72.44
2023-04-21T01:14:43.216Z,70.79
2023-04-21T01:15:43.198Z,71.00
2023-04-21T01:16:43.227Z,69.15
2023-04-21T01:17:43.196Z,68.74
2023-04-21T01:18:43.166Z,67.40
2023-04-21T01:19:43.151Z,68.94
2023-04-21T01:20:43.144Z,68.43
2023-04-21T01:21:43.126Z,68.53
2023-04-21T01:22:43.120Z,68.94
2023-04-21T01:23:43.107Z,69.04
2023-04-21T01:24:43.097Z,67.81
2023-04-21T01:25:43.089Z,66.99
2023-04-21T01:26:43.083Z,66.47
2023-04-21T01:27:43.075Z,67.09
2023-04-21T01:28:43.084Z,66.37
2023-04-21T01:29:43.044Z,64.62
2023-04-21T01:30:43.032Z,66.06
2023-04-21T01:31:43.063Z,66.99
2023-04-21T01:32:43.044Z,66.47
2023-04-21T01:33:42.996Z,67.50
2023-04-21T01:34:42.986Z,67.60
2023-04-21T01:35:42.973Z,67.30
2023-04-21T01:36:42.963Z,67.60
2023-04-21T01:37:42.953Z,67.50
2023-04-21T01:38:42.947Z,66.09
2023-04-21T01:39:42.935Z,67.30
2023-04-21T01:40:42.922Z,67.40
2023-04-21T01:41:42.908Z,68.22
2023-04-21T01:42:42.908Z,68.02
2023-04-21T01:43:42.886Z,66.88
2023-04-21T01:44:42.910Z,67.81
2023-04-21T01:45:42.893Z,68.63
2023-04-21T01:46:42.870Z,68.53
2023-04-21T01:47:42.882Z,68.43
2023-04-21T01:48:42.839Z,68.02
2023-04-21T01:49:42.824Z,67.19
2023-04-21T01:50:42.809Z,67.09
2023-04-21T01:51:42.795Z,67.02
2023-04-21T01:52:42.794Z,66.88
2023-04-21T01:53:42.775Z,66.67
2023-04-21T01:54:42.769Z,68.43
2023-04-21T01:55:42.755Z,68.63
2023-04-21T01:56:42.790Z,68.05
2023-04-21T01:57:42.741Z,67.12
2023-04-21T01:58:42.725Z,67.91
2023-04-21T01:59:42.709Z,69.66
2023-04-21T02:00:42.722Z,68.94
2023-04-21T02:01:42.738Z,68.63
2023-04-21T02:02:42.873Z,69.66
2023-04-21T02:03:42.868Z,68.94
2023-04-21T02:04:42.653Z,70.28
2023-04-21T02:05:42.644Z,70.69
2023-04-21T02:06:42.631Z,70.48
2023-04-21T02:07:42.631Z,70.18
2023-04-21T02:08:42.694Z,69.07
2023-04-21T02:09:42.599Z,68.35
2023-04-21T02:10:42.590Z,68.35
2023-04-21T02:11:42.578Z,68.32
2023-04-21T02:12:42.574Z,67.50
2023-04-21T02:13:42.556Z,68.22
2023-04-21T02:14:42.542Z,69.04
2023-04-21T02:15:42.626Z,69.46
2023-04-21T02:16:42.555Z,69.49
2023-04-21T02:17:42.517Z,67.53
2023-04-21T02:18:42.526Z,67.63
2023-04-21T02:19:42.482Z,68.02
2023-04-21T02:20:42.485Z,68.02
2023-04-21T02:21:42.462Z,68.84
2023-04-21T02:22:42.462Z,68.87
2023-04-21T02:23:42.436Z,68.56
2023-04-21T02:24:42.430Z,69.07
2023-04-21T02:25:42.420Z,69.76
2023-04-21T02:26:42.406Z,70.42
2023-04-21T02:27:42.394Z,68.46
2023-04-21T02:28:42.381Z,66.61
2023-04-21T02:29:42.373Z,68.87
2023-04-21T02:30:42.697Z,68.66
2023-04-21T02:31:57.332Z,70.07
2023-04-21T02:32:42.432Z,69.76
2023-04-21T02:33:42.329Z,72.44
2023-04-21T02:34:42.315Z,72.24
2023-04-21T02:35:42.305Z,72.64
2023-04-21T02:36:42.307Z,72.03
2023-04-21T02:37:42.278Z,70.28
2023-04-21T02:38:42.269Z,70.48
2023-04-21T02:39:42.259Z,72.03
2023-04-21T02:40:42.248Z,69.97
2023-04-21T02:41:42.234Z,71.00
2023-04-21T02:42:42.223Z,71.51
2023-04-21T02:43:42.211Z,71.41
2023-04-21T02:44:42.208Z,71.03
2023-04-21T02:45:42.184Z,71.72
2023-04-21T02:46:42.218Z,71.03
2023-04-21T02:47:42.210Z,70.42
2023-04-21T02:48:42.181Z,69.59
2023-04-21T02:49:42.142Z,68.77
2023-04-21T02:50:42.134Z,68.77
2023-04-21T02:51:42.125Z,66.91
2023-04-21T02:52:42.111Z,67.43
2023-04-21T02:53:42.125Z,67.63
2023-04-21T02:54:42.129Z,68.25
2023-04-21T02:55:42.092Z,67.12
2023-04-21T02:56:42.072Z,68.05
2023-04-21T02:57:42.062Z,68.66
2023-04-21T02:58:42.045Z,70.21
2023-04-21T02:59:42.031Z,70.83
2023-04-21T03:00:42.044Z,71.31
2023-04-21T03:01:42.008Z,72.44
2023-04-21T03:02:42.162Z,73.36
2023-04-21T03:03:42.024Z,72.75
2023-04-21T03:04:42.042Z,73.26
2023-04-21T03:05:41.963Z,71.75
2023-04-21T03:06:41.951Z,72.06
2023-04-21T03:07:41.936Z,72.06
2023-04-21T03:08:41.933Z,71.14
2023-04-21T03:09:41.938Z,70.00
2023-04-21T03:10:41.914Z,69.49
2023-04-21T03:11:41.898Z,68.25
2023-04-21T03:12:41.891Z,67.36
2023-04-21T03:13:41.873Z,66.22
2023-04-21T03:14:41.862Z,66.84
2023-04-21T03:15:41.850Z,65.92
2023-04-21T03:16:41.864Z,63.96
2023-04-21T03:17:41.846Z,65.37
2023-04-21T03:18:41.825Z,66.81
2023-04-21T03:19:41.810Z,67.12
2023-04-21T03:20:41.830Z,67.02
2023-04-21T03:21:41.783Z,68.25
2023-04-21T03:22:41.771Z,69.28
2023-04-21T03:23:41.764Z,69.49
2023-04-21T03:24:41.755Z,69.28
2023-04-21T03:25:41.748Z,69.70
2023-04-21T03:26:41.741Z,68.87
2023-04-21T03:27:41.720Z,68.87
2023-04-21T03:28:41.716Z,69.59
2023-04-21T03:29:41.701Z,68.77
2023-04-21T03:30:41.690Z,69.07
2023-04-21T03:31:41.681Z,68.77
2023-04-21T03:32:41.736Z,68.98
2023-04-21T03:33:41.651Z,70.00
2023-04-21T03:34:41.642Z,68.98
2023-04-21T03:35:41.625Z,70.31
2023-04-21T03:36:41.641Z,69.79
2023-04-21T03:37:41.611Z,69.28
2023-04-21T03:38:41.595Z,69.28
2023-04-21T03:39:41.602Z,69.90
2023-04-21T03:40:41.584Z,70.10
2023-04-21T03:41:41.560Z,68.25
2023-04-21T03:42:41.562Z,68.90
2023-04-21T03:43:41.541Z,68.59
2023-04-21T03:44:41.534Z,67.15
2023-04-21T03:45:41.530Z,64.68
2023-04-21T03:46:41.510Z,64.89
2023-04-21T03:47:41.550Z,65.71
2023-04-21T03:48:41.486Z,67.15
2023-04-21T03:49:41.479Z,66.33
2023-04-21T03:50:41.459Z,65.19
2023-04-21T03:51:41.454Z,64.47
2023-04-21T03:52:41.459Z,62.10
2023-04-21T03:53:41.425Z,65.09
2023-04-21T03:54:41.418Z,64.89
2023-04-21T03:55:41.403Z,64.06
2023-04-21T03:56:41.397Z,62.62
2023-04-21T03:57:41.390Z,62.93
2023-04-21T03:58:41.370Z,66.22
2023-04-21T03:59:41.359Z,66.02
2023-04-21T04:00:41.351Z,65.50
2023-04-21T04:01:41.352Z,67.97
2023-04-21T04:02:41.487Z,66.74
2023-04-21T04:03:41.559Z,66.22
2023-04-21T04:04:41.485Z,65.81
2023-04-21T04:05:41.412Z,66.53
2023-04-21T04:06:41.288Z,66.43
2023-04-21T04:07:41.268Z,65.81
2023-04-21T04:08:41.285Z,67.15
2023-04-21T04:09:41.254Z,67.25
2023-04-21T04:10:41.239Z,68.08
2023-04-21T04:11:41.234Z,67.36
2023-04-21T04:12:41.216Z,67.36
2023-04-21T04:13:41.202Z,66.84
2023-04-21T04:14:41.194Z,64.99
2023-04-21T04:15:41.210Z,64.89
2023-04-21T04:16:41.175Z,65.09
2023-04-21T04:17:41.198Z,64.29
2023-04-21T04:18:41.148Z,63.47
2023-04-21T04:19:41.132Z,59.77
2023-04-21T04:20:41.125Z,61.82
2023-04-21T04:21:41.119Z,60.69
2023-04-21T04:22:41.112Z,60.49
2023-04-21T04:23:41.100Z,60.17
2023-04-21T04:24:41.109Z,58.53
2023-04-21T04:25:41.070Z,59.35
2023-04-21T04:26:41.064Z,59.35
2023-04-21T04:27:41.045Z,61.41
2023-04-21T04:28:41.037Z,60.89
2023-04-21T04:29:41.032Z,62.21
2023-04-21T04:30:41.018Z,62.85
2023-04-21T04:31:41.087Z,61.52
2023-04-21T04:32:41.080Z,62.03
2023-04-21T04:33:40.992Z,61.10
2023-04-21T04:34:40.966Z,61.93
2023-04-21T04:35:40.954Z,62.00
2023-04-21T04:36:40.942Z,63.37
2023-04-21T04:37:40.933Z,61.52
2023-04-21T04:38:40.919Z,61.10
2023-04-21T04:39:40.910Z,61.21
2023-04-21T04:40:40.918Z,61.31
2023-04-21T04:41:40.886Z,60.59
2023-04-21T04:42:40.882Z,59.97
2023-04-21T04:43:40.863Z,60.35
2023-04-21T04:44:40.855Z,63.13
2023-04-21T04:45:40.844Z,64.17
2023-04-21T04:46:40.917Z,64.58
2023-04-21T04:47:40.876Z,63.34
2023-04-21T04:48:40.817Z,64.27
2023-04-21T04:49:40.798Z,62.82
2023-04-21T04:50:40.796Z,62.52
2023-04-21T04:51:40.782Z,63.03
2023-04-21T04:52:40.767Z,62.93
2023-04-21T04:53:40.759Z,62.82
2023-04-21T04:54:40.734Z,63.17
2023-04-21T04:55:40.757Z,62.41
2023-04-21T04:56:40.743Z,62.31
2023-04-21T04:57:40.710Z,62.93
2023-04-21T04:58:40.750Z,63.45
2023-04-21T04:59:40.717Z,65.40
2023-04-21T05:00:40.772Z,65.30
2023-04-21T05:01:40.849Z,66.94
2023-04-21T05:02:40.974Z,66.74
2023-04-21T05:03:40.873Z,66.50
2023-04-21T05:04:40.845Z,66.81
2023-04-21T05:05:40.733Z,67.53
2023-04-21T05:06:40.790Z,67.63
2023-04-21T05:07:40.615Z,67.53
2023-04-21T05:08:40.577Z,68.25
2023-04-21T05:09:40.575Z,69.70
2023-04-21T05:10:40.561Z,70.10
2023-04-21T05:11:40.552Z,71.10
2023-04-21T05:12:40.567Z,73.47
2023-04-21T05:13:40.525Z,75.42
2023-04-21T05:14:40.524Z,76.83
2023-04-21T05:15:40.507Z,79.71
2023-04-21T05:16:40.512Z,81.93
2023-04-21T05:17:40.556Z,83.89
2023-04-21T05:18:40.473Z,86.56
2023-04-21T05:19:40.462Z,87.85
2023-04-21T05:20:40.463Z,90.12
2023-04-21T05:21:40.448Z,90.22
2023-04-21T05:22:40.440Z,93.30
2023-04-21T05:23:40.670Z,94.18
2023-04-21T05:24:40.405Z,94.18
2023-04-21T05:25:40.400Z,95.10
2023-04-21T05:26:40.385Z,95.98
2023-04-21T05:27:40.371Z,96.40
2023-04-21T05:28:40.395Z,98.51
2023-04-21T05:29:40.363Z,99.12
2023-04-21T05:30:40.488Z,98.82
2023-04-21T05:31:40.365Z,99.99
2023-04-21T05:32:40.367Z,99.99
2023-04-21T05:33:40.304Z,99.99
2023-04-21T05:34:40.289Z,99.99
2023-04-21T05:35:40.286Z,99.99
2023-04-21T05:36:40.270Z,99.99
2023-04-21T05:37:40.261Z,99.99
2023-04-21T05:38:40.250Z,99.99
2023-04-21T05:39:40.261Z,99.99
2023-04-21T05:40:40.237Z,99.99
2023-04-21T05:41:40.215Z,99.99
2023-04-21T05:42:40.208Z,99.99
2023-04-21T05:43:40.195Z,99.99
2023-04-21T05:44:40.214Z,99.99
2023-04-21T05:45:40.212Z,99.99
2023-04-21T05:46:40.255Z,99.99
2023-04-21T05:47:40.209Z,99.99
2023-04-21T05:48:40.149Z,99.99
2023-04-21T05:49:40.127Z,99.99
2023-04-21T05:50:40.120Z,99.99
2023-04-21T05:51:40.151Z,99.99
2023-04-21T05:52:40.131Z,99.99
2023-04-21T05:53:40.091Z,99.99
2023-04-21T05:54:40.074Z,99.99
2023-04-21T05:55:40.059Z,99.99
2023-04-21T05:56:40.046Z,99.99
2023-04-21T05:57:40.051Z,99.99
2023-04-21T05:58:40.034Z,99.99
2023-04-21T05:59:40.021Z,99.99
2023-04-21T06:00:40.046Z,99.99
2023-04-21T06:01:39.988Z,99.99
2023-04-21T06:02:40.206Z,99.99
2023-04-21T06:03:40.102Z,99.99
2023-04-21T06:04:40.562Z,99.99
2023-04-21T06:05:40.021Z,99.99
2023-04-21T06:06:39.937Z,99.99
2023-04-21T06:07:39.932Z,99.99
2023-04-21T06:08:39.920Z,99.99
2023-04-21T06:09:39.916Z,99.99
2023-04-21T06:10:39.888Z,99.99
2023-04-21T06:11:39.874Z,99.99
2023-04-21T06:12:39.866Z,99.99
2023-04-21T06:13:42.266Z,99.99
2023-04-21T06:14:39.853Z,99.99
2023-04-21T06:15:39.830Z,99.99
2023-04-21T06:16:39.910Z,99.99
2023-04-21T06:17:40.027Z,99.99
2023-04-21T06:18:39.805Z,99.99
2023-04-21T06:19:41.820Z,99.99
2023-04-21T06:20:39.797Z,99.99
2023-04-21T06:21:39.766Z,99.99
2023-04-21T06:22:39.786Z,99.99
2023-04-21T06:23:39.739Z,99.99
2023-04-21T06:24:39.741Z,99.99
2023-04-21T06:25:39.725Z,99.99
2023-04-21T06:26:39.713Z,99.99
2023-04-21T06:27:39.695Z,99.99
2023-04-21T06:28:39.678Z,99.99
2023-04-21T06:29:39.671Z,99.99
2023-04-21T06:30:39.667Z,99.99
2023-04-21T06:31:39.684Z,99.99
2023-04-21T06:32:39.756Z,99.99
2023-04-21T06:33:39.672Z,99.99
2023-04-21T06:34:39.662Z,99.99
2023-04-21T06:35:39.603Z,99.99
2023-04-21T06:36:39.598Z,99.99
2023-04-21T06:37:39.586Z,99.99
2023-04-21T06:38:39.570Z,99.99
2023-04-21T06:39:39.564Z,99.99
2023-04-21T06:40:39.544Z,99.99
2023-04-21T06:41:39.544Z,99.99
2023-04-21T06:42:39.522Z,99.99
2023-04-21T06:43:39.513Z,99.99
2023-04-21T06:44:39.505Z,99.99
2023-04-21T06:45:39.485Z,99.99
2023-04-21T06:46:39.568Z,99.99
2023-04-21T06:47:39.526Z,99.99
2023-04-21T06:48:39.510Z,99.99
2023-04-21T06:49:39.485Z,99.99
2023-04-21T06:50:39.472Z,99.99
2023-04-21T06:51:39.438Z,99.99
2023-04-21T06:52:39.410Z,99.99
2023-04-21T06:53:39.402Z,99.99
2023-04-21T06:54:39.388Z,99.99
2023-04-21T06:55:39.380Z,99.99
2023-04-21T06:56:39.367Z,99.99
2023-04-21T06:57:39.358Z,99.99
2023-04-21T06:58:39.356Z,99.99
2023-04-21T06:59:39.335Z,99.99
2023-04-21T07:00:39.355Z,99.99
2023-04-21T07:01:39.521Z,99.99
2023-04-21T07:02:39.470Z,99.99
2023-04-21T07:03:39.341Z,99.99
2023-04-21T07:04:39.372Z,99.99
2023-04-21T07:05:39.320Z,99.99
2023-04-21T07:06:39.255Z,99.99
2023-04-21T07:07:39.245Z,99.99
2023-04-21T07:08:39.235Z,99.99
2023-04-21T07:09:39.220Z,99.99
2023-04-21T07:10:39.216Z,99.99
2023-04-21T07:11:39.201Z,99.99
2023-04-21T07:12:39.189Z,99.99
2023-04-21T07:13:39.182Z,99.99
2023-04-21T07:14:39.175Z,99.99
2023-04-21T07:15:39.176Z,99.99
2023-04-21T07:16:39.157Z,99.99
2023-04-21T07:17:39.161Z,99.99
2023-04-21T07:18:39.147Z,99.99
2023-04-21T07:19:39.155Z,99.99
2023-04-21T07:20:39.128Z,99.99
2023-04-21T07:21:39.119Z,99.99
2023-04-21T07:22:39.084Z,99.99
2023-04-21T07:23:39.073Z,99.99
2023-04-21T07:24:39.064Z,99.99
2023-04-21T07:25:39.055Z,99.99
2023-04-21T07:26:39.037Z,99.83
2023-04-21T07:27:39.039Z,99.87
2023-04-21T07:28:39.012Z,99.99
2023-04-21T07:29:39.013Z,99.99
2023-04-21T07:30:39.026Z,99.99
2023-04-21T07:31:39.032Z,99.99
2023-04-21T07:32:39.178Z,99.99
2023-04-21T07:33:38.993Z,99.99
2023-04-21T07:34:38.944Z,99.77
2023-04-21T07:35:38.936Z,99.99
2023-04-21T07:36:38.965Z,99.99
2023-04-21T07:37:38.911Z,99.99
2023-04-21T07:38:38.901Z,99.99
2023-04-21T07:39:38.892Z,99.99
2023-04-21T07:40:38.897Z,99.99
2023-04-21T07:41:38.868Z,98.82
2023-04-21T07:42:38.867Z,99.57
2023-04-21T07:43:38.843Z,99.99
2023-04-21T07:44:38.836Z,97.36
2023-04-21T07:45:38.831Z,97.42
2023-04-21T07:46:38.965Z,95.36
2023-04-21T07:47:38.867Z,93.99
2023-04-21T07:48:38.801Z,95.36
2023-04-21T07:49:38.788Z,93.54
2023-04-21T07:50:38.931Z,92.68
2023-04-21T07:51:38.755Z,94.54
2023-04-21T07:52:38.772Z,94.94
2023-04-21T07:53:38.737Z,93.02
2023-04-21T07:54:38.734Z,92.72
2023-04-21T07:55:38.710Z,94.44
2023-04-21T07:56:38.701Z,94.19
2023-04-21T07:57:38.724Z,93.69
2023-04-21T07:58:38.678Z,93.49
2023-04-21T07:59:38.698Z,92.43
2023-04-21T08:00:38.689Z,91.99
2023-04-21T08:01:38.668Z,90.88
2023-04-21T08:02:38.681Z,90.44
2023-04-21T08:03:39.127Z,91.69
2023-04-21T08:04:38.793Z,90.73
2023-04-21T08:05:41.164Z,91.08
2023-04-21T08:06:38.778Z,91.24
2023-04-21T08:07:38.592Z,89.48
2023-04-21T08:08:38.626Z,89.04
2023-04-21T08:09:38.555Z,88.90
2023-04-21T08:10:38.597Z,88.03
2023-04-21T08:11:38.570Z,88.18
2023-04-21T08:12:38.564Z,88.38
2023-04-21T08:13:38.511Z,89.08
2023-04-21T08:14:38.592Z,88.13
2023-04-21T08:15:38.528Z,87.27
2023-04-21T08:16:38.567Z,87.63
2023-04-21T08:17:38.503Z,87.79
2023-04-21T08:18:38.467Z,87.43
2023-04-21T08:19:38.502Z,86.68
2023-04-21T08:20:38.449Z,86.79
2023-04-21T08:21:38.432Z,87.19
2023-04-21T08:22:38.469Z,86.99
2023-04-21T08:23:38.405Z,86.54
2023-04-21T08:24:38.413Z,86.70
2023-04-21T08:25:38.388Z,84.89
2023-04-21T08:26:38.402Z,85.19
2023-04-21T08:27:38.364Z,86.80
2023-04-21T08:28:38.391Z,85.25
2023-04-21T08:29:38.361Z,84.39
2023-04-21T08:30:38.621Z,84.85
2023-04-21T08:31:38.388Z,84.35
2023-04-21T08:32:38.338Z,85.05
2023-04-21T08:33:46.746Z,83.99
2023-04-21T08:34:39.307Z,85.05
2023-04-21T08:35:39.579Z,85.36
2023-04-21T08:36:38.258Z,84.15
2023-04-21T08:37:38.260Z,83.85
2023-04-21T08:38:38.235Z,83.51
2023-04-21T08:39:38.240Z,83.75
2023-04-21T08:40:38.237Z,83.55
2023-04-21T08:41:38.264Z,83.31
2023-04-21T08:42:38.206Z,82.90
2023-04-21T08:43:38.208Z,83.07
2023-04-21T08:44:38.178Z,83.27
2023-04-21T08:45:38.184Z,82.82
2023-04-21T08:46:38.150Z,82.63
2023-04-21T08:47:38.173Z,83.85
2023-04-21T08:48:38.134Z,81.65
2023-04-21T08:49:38.153Z,81.88
2023-04-21T08:50:38.116Z,80.38
2023-04-21T08:51:38.125Z,81.38
2023-04-21T08:52:38.094Z,80.65
2023-04-21T08:53:38.073Z,82.57
2023-04-21T08:54:38.066Z,80.21
2023-04-21T08:55:38.059Z,81.35
2023-04-21T08:56:38.106Z,80.94
2023-04-21T08:57:38.038Z,80.97
2023-04-21T08:58:38.055Z,80.21
2023-04-21T08:59:38.011Z,80.67
2023-04-21T09:00:38.069Z,79.86
2023-04-21T09:01:38.047Z,80.24
2023-04-21T09:02:38.081Z,81.15
2023-04-21T09:03:38.375Z,81.30
2023-04-21T09:04:38.210Z,80.57
2023-04-21T09:05:41.807Z,79.49
2023-04-21T09:06:38.071Z,79.75
2023-04-21T09:07:37.947Z,77.89
2023-04-21T09:08:37.921Z,77.73
2023-04-21T09:09:37.908Z,76.67
2023-04-21T09:10:37.893Z,77.67
2023-04-21T09:11:37.884Z,77.23
2023-04-21T09:12:37.907Z,77.75
2023-04-21T09:13:37.881Z,75.92
2023-04-21T09:14:37.848Z,75.82
2023-04-21T09:15:37.835Z,75.25
2023-04-21T09:16:37.877Z,74.81
2023-04-21T09:17:37.954Z,75.25
2023-04-21T09:18:37.817Z,74.98
2023-04-21T09:19:37.801Z,74.55
2023-04-21T09:20:38.176Z,73.45
2023-04-21T09:21:37.770Z,73.65
2023-04-21T09:22:37.770Z,75.22
2023-04-21T09:23:37.757Z,75.02
2023-04-21T09:24:37.739Z,75.28
2023-04-21T09:25:37.737Z,74.05
2023-04-21T09:26:37.722Z,73.82
2023-04-21T09:27:37.710Z,73.95
2023-04-21T09:28:37.830Z,74.85
2023-04-21T09:29:37.914Z,74.41
2023-04-21T09:30:38.226Z,73.42
2023-04-21T09:31:37.882Z,72.98
2023-04-21T09:32:37.789Z,72.75
2023-04-21T09:34:37.646Z,71.19
2023-04-21T09:35:37.654Z,70.09
2023-04-21T09:36:37.622Z,70.32
2023-04-21T09:37:37.619Z,70.12
2023-04-21T09:38:37.611Z,70.45
2023-04-21T09:39:49.349Z,71.05
2023-04-21T09:40:38.980Z,70.59
2023-04-21T09:41:37.576Z,71.25
2023-04-21T09:42:40.134Z,70.72
2023-04-21T09:43:37.562Z,69.16
2023-04-21T09:44:50.396Z,70.52
2023-04-21T09:45:40.538Z,68.66
2023-04-21T09:46:37.956Z,69.23
2023-04-21T09:47:37.510Z,68.96
2023-04-21T09:48:37.490Z,69.73
2023-04-21T09:49:37.472Z,69.29
2023-04-21T09:52:37.460Z,68.27
2023-04-21T09:53:37.431Z,68.76
2023-04-21T09:54:37.435Z,66.94
2023-04-21T09:55:37.443Z,67.97
2023-04-21T09:56:37.403Z,67.17
2023-04-21T09:57:37.393Z,68.20
2023-04-21T09:58:37.379Z,68.30
2023-04-21T09:59:37.373Z,68.46
2023-04-21T10:00:37.384Z,67.80
2023-04-21T10:01:37.385Z,68.13
2023-04-21T10:02:37.547Z,67.04
2023-04-21T10:03:37.444Z,66.74
2023-04-21T10:04:37.849Z,68.33
2023-04-21T10:05:40.083Z,68.07
2023-04-21T10:06:37.294Z,66.47
2023-04-21T10:07:37.285Z,67.24
2023-04-21T10:08:37.298Z,65.75
2023-04-21T10:09:37.280Z,65.75
2023-04-21T10:10:37.254Z,65.75
2023-04-21T10:11:37.251Z,64.19
2023-04-21T10:12:37.233Z,64.82
2023-04-21T10:13:37.222Z,65.39
2023-04-21T10:14:37.219Z,65.35
2023-04-21T10:15:37.197Z,66.67
2023-04-21T10:16:37.450Z,66.71
2023-04-21T10:17:37.229Z,64.49
2023-04-21T10:18:37.174Z,64.22
2023-04-21T10:19:37.166Z,64.49
2023-04-21T10:20:37.266Z,64.86
2023-04-21T10:21:37.149Z,63.73
2023-04-21T10:22:37.132Z,61.94
2023-04-21T10:23:37.119Z,62.45
2023-04-21T10:24:37.104Z,62.27
2023-04-21T10:25:37.094Z,62.67
2023-04-21T10:26:37.099Z,61.98
2023-04-21T10:27:37.080Z,62.51
2023-04-21T10:28:37.062Z,61.88
2023-04-21T10:29:52.573Z,62.94
2023-04-21T10:30:38.063Z,62.94
2023-04-21T10:31:37.072Z,62.02
2023-04-21T10:32:37.201Z,61.79
2023-04-21T10:33:37.014Z,60.99
2023-04-21T10:34:37.002Z,61.32
2023-04-21T10:35:37.023Z,61.76
2023-04-21T10:36:36.972Z,60.89
2023-04-21T10:37:36.964Z,61.36
2023-04-21T10:38:36.956Z,60.50
2023-04-21T10:39:36.948Z,60.33
2023-04-21T10:40:44.200Z,61.05
2023-04-21T10:41:37.952Z,60.93
2023-04-21T10:42:37.113Z,60.72
2023-04-21T10:43:36.990Z,59.34
2023-04-21T10:44:36.889Z,60.17
2023-04-21T10:45:36.874Z,59.21
2023-04-21T10:46:37.068Z,59.97
2023-04-21T10:47:36.895Z,59.01
2023-04-21T10:48:36.882Z,59.58
2023-04-21T10:49:36.836Z,57.89
2023-04-21T10:50:38.958Z,58.22
2023-04-21T10:51:36.813Z,57.10
2023-04-21T10:52:36.823Z,57.76
2023-04-21T10:53:36.815Z,56.70
2023-04-21T10:54:36.797Z,57.17
2023-04-21T10:55:36.884Z,56.97
2023-04-21T10:56:38.681Z,55.85
2023-04-21T10:57:36.779Z,54.96
2023-04-21T10:58:36.744Z,54.52
2023-04-21T10:59:36.737Z,55.44
2023-04-21T11:00:36.791Z,55.81
2023-04-21T11:01:36.748Z,57.00
2023-04-21T11:02:39.078Z,54.72
2023-04-21T11:03:36.876Z,56.63
2023-04-21T11:04:37.059Z,56.68
2023-04-21T11:05:36.680Z,57.14
2023-04-21T11:06:36.692Z,57.09
2023-04-21T11:07:36.642Z,53.77
2023-04-21T11:08:38.213Z,51.94
2023-04-21T11:09:36.637Z,52.71
2023-04-21T11:10:36.622Z,53.53
2023-04-21T11:11:36.641Z,53.80
2023-04-21T11:12:36.605Z,54.27
2023-04-21T11:13:36.587Z,53.38
2023-04-21T11:14:37.032Z,52.31
2023-04-21T11:15:36.575Z,54.02
2023-04-21T11:16:36.623Z,55.16
2023-04-21T11:17:36.609Z,53.78
2023-04-21T11:18:36.645Z,54.67
2023-04-21T11:19:36.538Z,53.35
2023-04-21T11:20:36.603Z,52.44
2023-04-21T11:21:36.540Z,53.50
2023-04-21T11:22:36.485Z,51.57
2023-04-21T11:23:36.494Z,51.67
2023-04-21T11:24:36.478Z,52.88
2023-04-21T11:25:36.505Z,52.66
2023-04-21T11:26:36.449Z,51.72
2023-04-21T11:27:36.437Z,50.31
2023-04-21T11:28:36.427Z,50.26
2023-04-21T11:29:36.440Z,49.62
2023-04-21T11:30:36.581Z,51.13
2023-04-21T11:31:36.543Z,51.92
2023-04-21T11:32:38.130Z,53.82
2023-04-21T11:33:36.369Z,52.91
2023-04-21T11:34:36.378Z,51.79
2023-04-21T11:35:36.349Z,50.95
2023-04-21T11:36:36.372Z,49.10
2023-04-21T11:37:36.336Z,49.44
2023-04-21T11:38:36.329Z,49.05
2023-04-21T11:39:36.311Z,49.79
2023-04-21T11:40:36.380Z,51.32
2023-04-21T11:41:36.315Z,50.60
2023-04-21T11:42:36.284Z,50.76
2023-04-21T11:43:36.270Z,49.82
2023-04-21T11:44:36.256Z,49.48
2023-04-21T11:45:36.245Z,50.36
2023-04-21T11:46:37.134Z,49.05
2023-04-21T11:47:36.271Z,49.03
2023-04-21T11:48:36.224Z,48.07
2023-04-21T11:49:36.212Z,46.83
2023-04-21T11:50:36.198Z,48.92
2023-04-21T11:51:36.193Z,51.67
2023-04-21T11:52:36.200Z,51.10
2023-04-21T11:53:36.266Z,49.20
2023-04-21T11:54:36.156Z,47.38
2023-04-21T11:55:36.150Z,42.97
2023-04-21T11:56:36.333Z,45.07
2023-04-21T11:57:36.119Z,43.55
2023-04-21T11:58:36.108Z,41.93
2023-04-21T11:59:36.097Z,41.49
2023-04-21T12:00:36.112Z,38.93
2023-04-21T12:01:36.086Z,40.01
2023-04-21T12:02:36.193Z,37.65
2023-04-21T12:03:36.204Z,38.62
2023-04-21T12:04:36.137Z,37.69
2023-04-21T12:05:36.201Z,36.94
2023-04-21T12:06:36.033Z,37.22
2023-04-21T12:07:36.016Z,36.90
2023-04-21T12:08:36.082Z,36.61
2023-04-21T12:09:35.997Z,35.44
2023-04-21T12:10:35.992Z,36.65
2023-04-21T12:11:35.982Z,36.94
2023-04-21T12:12:36.050Z,37.04
2023-04-21T12:13:35.956Z,36.36
2023-04-21T12:14:35.942Z,37.57
2023-04-21T12:15:35.986Z,37.45
2023-04-21T12:16:35.946Z,36.66
2023-04-21T12:17:36.022Z,35.83
2023-04-21T12:18:36.747Z,38.29
2023-04-21T12:19:35.929Z,39.71
2023-04-21T12:20:36.088Z,40.48
2023-04-21T12:21:35.979Z,38.75
2023-04-21T12:22:35.984Z,38.92
2023-04-21T12:23:36.033Z,39.24
2023-04-21T12:24:36.811Z,37.90
2023-04-21T12:25:35.963Z,35.79
2023-04-21T12:26:35.844Z,37.60
2023-04-21T12:27:36.723Z,37.70
2023-04-21T12:28:35.792Z,38.49
2023-04-21T12:29:35.800Z,38.94
2023-04-21T12:30:39.246Z,41.08
2023-04-21T12:31:36.126Z,39.83
2023-04-21T12:32:35.826Z,38.69
2023-04-21T12:33:35.800Z,36.98
2023-04-21T12:34:35.732Z,35.88
2023-04-21T12:35:35.724Z,34.67
2023-04-21T12:36:36.587Z,34.08
2023-04-21T12:37:35.696Z,33.42
2023-04-21T12:38:35.695Z,33.87
2023-04-21T12:39:35.686Z,32.97
2023-04-21T12:40:35.688Z,33.25
2023-04-21T12:41:35.653Z,35.76
2023-04-21T12:42:37.780Z,34.48
2023-04-21T12:43:35.834Z,34.10
2023-04-21T12:44:35.650Z,34.92
2023-04-21T12:45:35.691Z,33.70
2023-04-21T12:46:35.609Z,33.80
2023-04-21T12:47:35.670Z,33.49
2023-04-21T12:48:35.586Z,33.67
2023-04-21T12:49:35.736Z,32.45
2023-04-21T12:50:35.564Z,32.90
2023-04-21T12:51:35.560Z,31.75
2023-04-21T12:52:35.549Z,31.90
2023-04-21T12:53:35.700Z,33.95
2023-04-21T12:54:35.791Z,32.28
2023-04-21T12:55:35.508Z,32.87